createdAt,value
2023-05-08T00:04:39.123Z,100496.47
2023-05-08T00:09:40.491Z,100500.38
2023-05-08T00:14:41.829Z,100494.06
2023-05-08T00:19:43.152Z,100496.59
2023-05-08T00:24:44.611Z,100502.84
2023-05-08T00:29:45.914Z,100508.00
2023-05-08T00:34:47.304Z,100502.44
2023-05-08T00:39:48.603Z,100503.72
2023-05-08T00:44:49.935Z,100500.56
2023-05-08T00:49:51.302Z,100507.25
2023-05-08T00:54:53.514Z,100505.94
2023-05-08T00:59:55.603Z,100503.19
2023-05-08T01:04:57.327Z,100500.78
2023-05-08T01:09:58.714Z,100501.63
2023-05-08T01:15:14.386Z,100499.41
2023-05-08T01:20:43.711Z,100517.53
2023-05-08T01:26:06.314Z,100525.72
2023-05-08T01:31:29.236Z,100513.31
2023-05-08T01:36:45.370Z,100523.34
2023-05-08T01:41:58.864Z,100522.34
2023-05-08T01:47:06.425Z,100531.72
2023-05-08T01:52:14.688Z,100524.13
2023-05-08T01:57:18.524Z,100529.75
2023-05-08T02:02:20.914Z,100530.91
2023-05-08T02:07:23.820Z,100537.44
2023-05-08T02:12:26.790Z,100547.97
2023-05-08T02:17:30.785Z,100544.75
2023-05-08T02:22:33.576Z,100560.81
2023-05-08T02:27:36.402Z,100550.88
2023-05-08T02:32:39.257Z,100559.34
2023-05-08T02:37:46.580Z,100548.03
2023-05-08T02:42:48.830Z,100563.03
2023-05-08T02:48:04.176Z,100558.91
2023-05-08T02:53:11.194Z,100561.19
2023-05-08T02:58:18.611Z,100571.63
2023-05-08T03:03:25.097Z,100573.09
2023-05-08T03:08:30.672Z,100574.25
2023-05-08T03:13:35.845Z,100566.66
2023-05-08T03:18:44.915Z,100566.97
2023-05-08T03:23:48.353Z,100566.41
2023-05-08T03:28:51.085Z,100556.59
2023-05-08T03:33:54.429Z,100566.88
2023-05-08T03:38:56.686Z,100567.59
2023-05-08T03:43:58.897Z,100567.34
2023-05-08T03:49:03.259Z,100572.03
2023-05-08T03:54:04.682Z,100567.25
2023-05-08T03:59:29.082Z,100570.63
2023-05-08T04:04:38.041Z,100580.06
2023-05-08T04:09:57.989Z,100589.13
2023-05-08T04:15:05.970Z,100595.72
2023-05-08T04:20:12.161Z,100601.22
2023-05-08T04:25:16.458Z,100591.41
2023-05-08T04:30:18.185Z,100597.44
2023-05-08T04:35:19.792Z,100611.03
2023-05-08T04:40:21.167Z,100599.19
2023-05-08T04:45:22.649Z,100593.66
2023-05-08T04:50:24.170Z,100596.41
2023-05-08T04:55:25.627Z,100601.78
2023-05-08T05:00:27.169Z,100603.19
2023-05-08T05:05:28.693Z,100606.28
2023-05-08T05:10:30.114Z,100620.44
2023-05-08T05:15:31.491Z,100618.56
2023-05-08T05:20:32.817Z,100614.19
2023-05-08T05:25:34.759Z,100633.53
2023-05-08T05:30:36.211Z,100638.63
2023-05-08T05:35:37.600Z,100649.81
2023-05-08T05:40:38.964Z,100653.34
2023-05-08T05:45:40.516Z,100657.41
2023-05-08T05:50:41.810Z,100649.25
2023-05-08T05:55:43.105Z,100659.00
2023-05-08T06:00:44.704Z,100658.28
2023-05-08T06:05:47.102Z,100661.13
2023-05-08T06:10:48.518Z,100664.53
2023-05-08T06:15:50.500Z,100656.63
2023-05-08T06:20:57.407Z,100670.44
2023-05-08T06:25:58.918Z,100655.06
2023-05-08T06:31:00.275Z,100671.84
2023-05-08T06:36:01.638Z,100681.84
2023-05-08T06:41:02.935Z,100687.94
2023-05-08T06:46:04.865Z,100691.22
2023-05-08T06:51:06.699Z,100686.38
2023-05-08T06:56:08.115Z,100673.56
2023-05-08T07:01:09.432Z,100693.88
2023-05-08T07:06:10.813Z,100681.28
2023-05-08T07:11:12.444Z,100684.53
2023-05-08T07:16:14.611Z,100673.97
2023-05-08T07:21:17.955Z,100680.00
2023-05-08T07:26:19.271Z,100680.00
2023-05-08T07:31:21.369Z,100686.50
2023-05-08T07:36:22.753Z,100690.56
2023-05-08T07:41:24.316Z,100689.56
2023-05-08T07:46:25.800Z,100692.97
2023-05-08T07:51:27.603Z,100696.34
2023-05-08T07:56:28.985Z,100699.59
2023-05-08T08:01:30.301Z,100697.13
2023-05-08T08:06:31.694Z,100693.47
2023-05-08T08:11:33.195Z,100696.00
2023-05-08T08:16:34.610Z,100683.63
2023-05-08T08:21:36.183Z,100691.63
2023-05-08T08:26:37.636Z,100697.25
2023-05-08T08:31:39.123Z,100688.91
2023-05-08T08:36:40.573Z,100687.72
2023-05-08T08:41:42.003Z,100687.44
2023-05-08T08:46:53.556Z,100676.94
2023-05-08T08:52:17.912Z,100688.22
2023-05-08T08:57:20.252Z,100701.75
2023-05-08T09:02:23.509Z,100696.38
2023-05-08T09:07:25.932Z,100700.59
2023-05-08T09:12:27.377Z,100698.63
2023-05-08T09:17:28.904Z,100701.91
2023-05-08T09:22:30.557Z,100698.38
2023-05-08T09:27:32.379Z,100706.84
2023-05-08T09:32:35.932Z,100715.59
2023-05-08T09:37:42.920Z,100709.22
2023-05-08T09:42:45.084Z,100713.88
2023-05-08T09:47:49.578Z,100718.94
2023-05-08T09:52:51.148Z,100733.31
2023-05-08T09:57:58.021Z,100734.50
2023-05-08T10:03:01.490Z,100728.25
2023-05-08T10:08:22.524Z,100728.81
2023-05-08T10:13:24.065Z,100734.72
2023-05-08T10:18:30.021Z,100733.81
2023-05-08T10:23:34.141Z,100726.69
2023-05-08T10:28:49.697Z,100730.63
2023-05-08T10:33:55.850Z,100721.03
2023-05-08T10:38:58.696Z,100712.34
2023-05-08T10:44:03.033Z,100715.41
2023-05-08T10:49:14.834Z,100721.94
2023-05-08T10:54:21.699Z,100720.50
2023-05-08T10:59:23.728Z,100713.50
2023-05-08T11:04:25.504Z,100703.53
2023-05-08T11:09:28.972Z,100698.56
2023-05-08T11:14:31.732Z,100697.94
2023-05-08T11:19:33.309Z,100697.19
2023-05-08T11:24:36.556Z,100692.84
2023-05-08T11:29:38.821Z,100701.31
2023-05-08T11:34:43.605Z,100691.75
2023-05-08T11:39:45.910Z,100695.66
2023-05-08T11:44:47.569Z,100687.56
2023-05-08T11:49:49.044Z,100689.59
2023-05-08T11:54:50.532Z,100687.25
2023-05-08T11:59:52.041Z,100689.63
2023-05-08T12:04:54.487Z,100687.28
2023-05-08T12:09:55.911Z,100679.38
2023-05-08T12:14:57.315Z,100683.78
2023-05-08T12:20:16.700Z,100690.69
2023-05-08T12:25:18.677Z,100690.16
2023-05-08T12:30:20.255Z,100676.50
2023-05-08T12:35:21.930Z,100679.66
2023-05-08T12:40:29.822Z,100679.28
2023-05-08T12:45:33.745Z,100675.53
2023-05-08T12:50:37.388Z,100685.16
2023-05-08T12:55:39.320Z,100672.94
2023-05-08T13:00:51.889Z,100666.78
2023-05-08T13:05:57.995Z,100658.50
2023-05-08T13:11:00.290Z,100660.84
2023-05-08T13:16:04.425Z,100641.75
2023-05-08T13:21:05.888Z,100652.47
2023-05-08T13:26:07.168Z,100640.94
2023-05-08T13:31:08.498Z,100628.38
2023-05-08T13:36:09.887Z,100624.63
2023-05-08T13:41:11.334Z,100632.75
2023-05-08T13:46:12.764Z,100631.81
2023-05-08T13:51:14.478Z,100637.91
2023-05-08T13:56:15.832Z,100618.03
2023-05-08T14:01:25.947Z,100617.69
2023-05-08T14:06:28.072Z,100618.28
2023-05-08T14:11:29.590Z,100611.81
2023-05-08T14:16:31.164Z,100608.38
2023-05-08T14:21:32.730Z,100610.72
2023-05-08T14:26:34.119Z,100604.31
2023-05-08T14:31:35.824Z,100597.06
2023-05-08T14:36:37.235Z,100604.03
2023-05-08T14:41:40.821Z,100602.06
2023-05-08T14:46:42.154Z,100598.31
2023-05-08T14:51:43.711Z,100594.63
2023-05-08T15:02:07.084Z,100581.63
2023-05-08T15:07:08.391Z,100578.09
2023-05-08T15:12:09.746Z,100579.88
2023-05-08T15:17:11.126Z,100563.53
2023-05-08T15:22:13.767Z,100565.44
2023-05-08T15:27:15.286Z,100574.47
2023-05-08T15:32:16.641Z,100571.50
2023-05-08T15:37:18.027Z,100579.00
2023-05-08T15:42:20.924Z,100581.28
2023-05-08T15:47:23.174Z,100572.03
2023-05-08T15:52:24.757Z,100581.03
2023-05-08T15:57:27.001Z,100592.38
2023-05-08T16:02:28.531Z,100593.06
2023-05-08T16:07:30.006Z,100596.13
2023-05-08T16:12:31.365Z,100600.22
2023-05-08T16:17:33.109Z,100605.59
2023-05-08T16:22:34.427Z,100604.09
2023-05-08T16:27:36.809Z,100607.03
2023-05-08T16:32:39.705Z,100601.97
2023-05-08T16:37:41.173Z,100603.81
2023-05-08T16:42:42.555Z,100609.88
2023-05-08T16:47:43.896Z,100597.59
2023-05-08T16:52:45.376Z,100590.88
2023-05-08T16:57:46.684Z,100593.22
2023-05-08T17:02:48.374Z,100586.13
2023-05-08T17:07:50.052Z,100589.53
2023-05-08T17:12:54.063Z,100592.88
2023-05-08T17:17:55.923Z,100582.44
2023-05-08T17:22:57.347Z,100579.75
2023-05-08T17:28:00.664Z,100577.56
2023-05-08T17:33:03.511Z,100576.69
2023-05-08T17:38:04.834Z,100571.66
2023-05-08T17:43:08.473Z,100575.00
2023-05-08T17:48:09.867Z,100584.13
2023-05-08T17:53:11.171Z,100575.34
2023-05-08T17:58:12.476Z,100576.38
2023-05-08T18:03:13.866Z,100589.00
2023-05-08T18:08:15.289Z,100592.56
2023-05-08T18:13:16.599Z,100588.84
2023-05-08T18:18:17.924Z,100585.69
2023-05-08T18:23:19.366Z,100597.47
2023-05-08T18:28:20.856Z,100579.41
2023-05-08T18:33:22.284Z,100597.75
2023-05-08T18:38:23.837Z,100585.47
2023-05-08T18:43:25.197Z,100594.06
2023-05-08T18:48:27.129Z,100594.38
2023-05-08T18:53:30.403Z,100601.16
2023-05-08T18:58:31.733Z,100605.00
2023-05-08T19:03:33.081Z,100599.97
2023-05-08T19:08:34.405Z,100609.75
2023-05-08T19:13:35.845Z,100602.81
2023-05-08T19:18:37.142Z,100601.81
2023-05-08T19:23:38.477Z,100605.50
2023-05-08T19:28:39.718Z,100602.81
2023-05-08T19:33:41.241Z,100606.84
2023-05-08T19:38:42.559Z,100594.72
2023-05-08T19:43:43.858Z,100601.63
2023-05-08T19:48:45.209Z,100590.53
2023-05-08T19:53:46.638Z,100594.22
2023-05-08T19:58:47.927Z,100599.44
2023-05-08T20:03:49.337Z,100600.94
2023-05-08T20:08:50.807Z,100591.50
2023-05-08T20:13:52.105Z,100590.31
2023-05-08T20:18:53.834Z,100587.28
2023-05-08T20:23:55.170Z,100585.56
2023-05-08T20:28:57.255Z,100597.84
2023-05-08T20:33:59.586Z,100604.25
2023-05-08T20:39:01.086Z,100590.75
2023-05-08T20:44:02.441Z,100588.94
2023-05-08T20:49:04.282Z,100589.56
2023-05-08T20:54:05.845Z,100583.34
2023-05-08T20:59:07.399Z,100582.84
2023-05-08T21:04:08.971Z,100587.03
2023-05-08T21:09:10.690Z,100568.84
2023-05-08T21:14:12.004Z,100565.81
2023-05-08T21:19:17.422Z,100566.13
2023-05-08T21:24:18.797Z,100557.91
2023-05-08T21:29:20.214Z,100554.00
2023-05-08T21:34:22.681Z,100560.38
2023-05-08T21:39:24.009Z,100559.72
2023-05-08T21:44:25.448Z,100559.84
2023-05-08T21:49:26.758Z,100551.25
2023-05-08T21:54:28.178Z,100564.06
2023-05-08T21:59:29.468Z,100554.63
2023-05-08T22:04:30.797Z,100547.91
2023-05-08T22:09:32.183Z,100544.50
2023-05-08T22:14:33.617Z,100547.53
2023-05-08T22:19:35.033Z,100536.09
2023-05-08T22:24:36.385Z,100536.09
2023-05-08T22:29:37.709Z,100534.72
2023-05-08T22:34:39.095Z,100517.53
2023-05-08T22:39:40.483Z,100517.53
2023-05-08T22:44:43.250Z,100515.53
2023-05-08T22:49:45.075Z,100500.22
2023-05-08T22:54:46.408Z,100494.19
2023-05-08T22:59:47.705Z,100497.22
2023-05-08T23:04:49.261Z,100477.88
2023-05-08T23:09:50.727Z,100490.13
2023-05-08T23:14:52.028Z,100482.22
2023-05-08T23:19:53.398Z,100485.94
2023-05-08T23:24:54.893Z,100473.47
2023-05-08T23:29:56.525Z,100467.09
2023-05-08T23:34:57.807Z,100466.41
2023-05-08T23:39:59.198Z,100457.81
2023-05-08T23:45:00.519Z,100452.59
2023-05-08T23:50:02.058Z,100453.28
2023-05-08T23:55:03.704Z,100453.97
